Nogal, NM

10:48 AM MST op 09 februari 2016 (GMT -0700)
coyote mesa | | Change Station
CLOSE
Current Station
Persoonlijk weerstation
Location: Alto, NM
Geometrische hoogte: 7323 ft
Nabije weerstations

Hoogte 7323 ft 33.43 °N, 105.66 °W | Updated 8 minutes ago

Helder
Helder
54.0 °F
Voelt als 54.0 °F
N
2.2
Wind Variabel Wind van NO

Vandaag
Hoog -- | Laag -- °F
--% Kans op neerslag
Gisteren
Hoog -- | Laag -- °F
Precip. -- inches
Druk 30.43 inches
Zicht 10.0 mijlen
Wolken
Dauwpunt 20 °F
Vochtigheid 26%
Neerslag 0.00 inches
Dikte sneeuw Niet beschikbaar.
6:53 AM 5:41 PM
Nieuwe maan, 2% visible
METAR KSRR 091735Z AUTO 36007KT 10SM 13/M09 A3043 RMK AO2
Druk 30.43 inches
Zicht 10.0 mijlen
Wolken
Dauwpunt 20 °F
Vochtigheid 26%
Neerslag 0.00 inches
Dikte sneeuw Niet beschikbaar.
6:53 AM 5:41 PM
Nieuwe maan, 2% visible
METAR KSRR 091735Z AUTO 36007KT 10SM 13/M09 A3043 RMK AO2

10-Day Weather Forecast

Almanac

Astronomie

Feb. 09, 2016 Opkomst Ondergang
Werkelijke tijd
Burgerlijke schemering
Nautische schemering
Astronomische schemering
Maan
Golflengte van het zichtbare licht
Daglengte
Tomorrow will be .
, % of the Moon is Illuminated

Extremen vandaag

State Highs State Lows

Community

WunderPhotos

Upload Photos

1,891,650 foto’s ge-upload!

WunderBlog® & News

Nearby

Luchtkwaliteit

  Luchtkwaliteit LK-index Verontreinigende stof
Not available.

Dikte sneeuw

Station Depth Geometrische hoogte

Aardbevingen

Stad Distance Mag. Time & Date
Minimum magnitude displayed is 2.5.

Watertemperatuur langs de kust

Plaats Temperatuur

Stations

Nabije weerstations

Locatie station Temp. Gevoelstemperatuur Dauwpunt Vochtigheid Wind Precip. Hoogte Geactualiseerd Type
                   

Watches & Warnings

There are currently no watches in effect.